Terminal Aerodrome Forecast
Issued by NWS

Home | Current Version | Previous Version | Text Only | Print | Product List | Glossary On
Versions: 1 2 3 4 5 6 7 8 9 10 11 12 13 14
000
FTUS45 KABQ 221123
TAFSAF
TAF
KSAF 221123Z 2212/2312 11008KT P6SM FEW150
     FM221700 29010G16KT P6SM FEW150
     FM222000 29017G28KT P6SM SCT150
     FM230200 30009KT P6SM FEW150
     FM230600 03006KT P6SM SCT150=

USA.gov is the U.S. government's official web portal to all federal, state and local government web resources and services.